sensor_id;sensor_type;location;lat;lon;timestamp;P1;durP1;ratioP1;P2;durP2;ratioP2
62927;SDS011;51070;52.236;-0.892;2023-04-16T00:00:05;12.90;;;8.50;;
62927;SDS011;51070;52.236;-0.892;2023-04-16T00:02:32;11.30;;;9.40;;
62927;SDS011;51070;52.236;-0.892;2023-04-16T00:04:58;11.50;;;9.50;;
62927;SDS011;51070;52.236;-0.892;2023-04-16T00:07:23;12.80;;;10.80;;
62927;SDS011;51070;52.236;-0.892;2023-04-16T00:09:49;16.50;;;10.50;;
62927;SDS011;51070;52.236;-0.892;2023-04-16T00:12:15;15.90;;;9.70;;
62927;SDS011;51070;52.236;-0.892;2023-04-16T00:14:40;13.60;;;8.50;;
62927;SDS011;51070;52.236;-0.892;2023-04-16T00:17:07;12.90;;;9.80;;
62927;SDS011;51070;52.236;-0.892;2023-04-16T00:19:34;13.90;;;10.00;;
62927;SDS011;51070;52.236;-0.892;2023-04-16T00:22:00;14.30;;;9.10;;
62927;SDS011;51070;52.236;-0.892;2023-04-16T00:24:25;12.20;;;8.90;;
62927;SDS011;51070;52.236;-0.892;2023-04-16T00:26:51;10.60;;;8.80;;
62927;SDS011;51070;52.236;-0.892;2023-04-16T00:29:16;11.10;;;8.50;;
62927;SDS011;51070;52.236;-0.892;2023-04-16T00:31:42;11.50;;;8.70;;
62927;SDS011;51070;52.236;-0.892;2023-04-16T00:34:07;16.20;;;9.40;;
62927;SDS011;51070;52.236;-0.892;2023-04-16T00:36:33;13.80;;;9.00;;
62927;SDS011;51070;52.236;-0.892;2023-04-16T00:38:58;13.20;;;9.10;;
62927;SDS011;51070;52.236;-0.892;2023-04-16T00:41:23;13.80;;;9.80;;
62927;SDS011;51070;52.236;-0.892;2023-04-16T00:43:51;15.20;;;10.20;;
62927;SDS011;51070;52.236;-0.892;2023-04-16T00:46:17;18.10;;;12.50;;
62927;SDS011;51070;52.236;-0.892;2023-04-16T00:48:45;18.30;;;14.40;;
62927;SDS011;51070;52.236;-0.892;2023-04-16T00:51:11;17.60;;;13.20;;
62927;SDS011;51070;52.236;-0.892;2023-04-16T00:53:37;16.90;;;13.20;;
62927;SDS011;51070;52.236;-0.892;2023-04-16T00:56:03;20.40;;;13.90;;
62927;SDS011;51070;52.236;-0.892;2023-04-16T00:58:31;18.00;;;13.10;;
62927;SDS011;51070;52.236;-0.892;2023-04-16T01:00:58;18.30;;;13.40;;
62927;SDS011;51070;52.236;-0.892;2023-04-16T01:03:24;16.10;;;12.70;;
62927;SDS011;51070;52.236;-0.892;2023-04-16T01:06:01;15.30;;;12.60;;
62927;SDS011;51070;52.236;-0.892;2023-04-16T01:08:27;13.70;;;10.80;;
62927;SDS011;51070;52.236;-0.892;2023-04-16T01:10:52;12.40;;;8.80;;
62927;SDS011;51070;52.236;-0.892;2023-04-16T01:13:17;11.10;;;8.70;;
62927;SDS011;51070;52.236;-0.892;2023-04-16T01:15:43;16.50;;;8.90;;
62927;SDS011;51070;52.236;-0.892;2023-04-16T01:18:18;12.70;;;9.20;;
62927;SDS011;51070;52.236;-0.892;2023-04-16T01:20:45;11.20;;;9.20;;
62927;SDS011;51070;52.236;-0.892;2023-04-16T01:23:12;10.90;;;8.50;;
62927;SDS011;51070;52.236;-0.892;2023-04-16T01:25:38;11.60;;;8.30;;
62927;SDS011;51070;52.236;-0.892;2023-04-16T01:28:04;10.10;;;8.90;;
62927;SDS011;51070;52.236;-0.892;2023-04-16T01:30:30;12.40;;;9.20;;
62927;SDS011;51070;52.236;-0.892;2023-04-16T01:32:56;12.30;;;8.90;;
62927;SDS011;51070;52.236;-0.892;2023-04-16T01:35:22;11.40;;;8.30;;
62927;SDS011;51070;52.236;-0.892;2023-04-16T01:37:51;10.00;;;8.20;;
62927;SDS011;51070;52.236;-0.892;2023-04-16T01:40:17;10.70;;;8.40;;
62927;SDS011;51070;52.236;-0.892;2023-04-16T01:42:43;11.60;;;8.70;;
62927;SDS011;51070;52.236;-0.892;2023-04-16T01:45:09;10.70;;;7.80;;
62927;SDS011;51070;52.236;-0.892;2023-04-16T01:47:35;10.60;;;8.00;;
62927;SDS011;51070;52.236;-0.892;2023-04-16T01:50:00;12.60;;;8.40;;
62927;SDS011;51070;52.236;-0.892;2023-04-16T01:52:27;9.40;;;7.60;;
62927;SDS011;51070;52.236;-0.892;2023-04-16T01:54:52;13.30;;;8.70;;
62927;SDS011;51070;52.236;-0.892;2023-04-16T01:57:18;11.90;;;8.60;;
62927;SDS011;51070;52.236;-0.892;2023-04-16T01:59:43;10.70;;;8.00;;
62927;SDS011;51070;52.236;-0.892;2023-04-16T02:02:09;13.00;;;7.80;;
62927;SDS011;51070;52.236;-0.892;2023-04-16T02:04:39;13.10;;;8.70;;
62927;SDS011;51070;52.236;-0.892;2023-04-16T02:07:06;13.30;;;9.50;;
62927;SDS011;51070;52.236;-0.892;2023-04-16T02:09:38;13.50;;;9.40;;
62927;SDS011;51070;52.236;-0.892;2023-04-16T02:12:05;10.20;;;8.40;;
62927;SDS011;51070;52.236;-0.892;2023-04-16T02:14:31;12.70;;;8.70;;
62927;SDS011;51070;52.236;-0.892;2023-04-16T02:16:58;11.70;;;9.00;;
62927;SDS011;51070;52.236;-0.892;2023-04-16T02:19:24;12.60;;;8.80;;
62927;SDS011;51070;52.236;-0.892;2023-04-16T02:21:50;13.90;;;10.00;;
62927;SDS011;51070;52.236;-0.892;2023-04-16T02:24:16;13.40;;;9.50;;
62927;SDS011;51070;52.236;-0.892;2023-04-16T02:26:42;15.60;;;9.90;;
62927;SDS011;51070;52.236;-0.892;2023-04-16T02:29:09;14.30;;;10.00;;
62927;SDS011;51070;52.236;-0.892;2023-04-16T02:31:35;11.20;;;8.90;;
62927;SDS011;51070;52.236;-0.892;2023-04-16T02:34:00;14.80;;;9.60;;
62927;SDS011;51070;52.236;-0.892;2023-04-16T02:36:26;15.30;;;10.30;;
62927;SDS011;51070;52.236;-0.892;2023-04-16T02:38:51;14.40;;;10.30;;
62927;SDS011;51070;52.236;-0.892;2023-04-16T02:41:17;14.00;;;10.50;;
62927;SDS011;51070;52.236;-0.892;2023-04-16T02:43:42;15.70;;;10.50;;
62927;SDS011;51070;52.236;-0.892;2023-04-16T02:46:08;12.60;;;9.30;;
62927;SDS011;51070;52.236;-0.892;2023-04-16T02:48:34;14.00;;;10.60;;
62927;SDS011;51070;52.236;-0.892;2023-04-16T02:51:00;14.30;;;9.20;;
62927;SDS011;51070;52.236;-0.892;2023-04-16T02:53:25;16.10;;;10.30;;
62927;SDS011;51070;52.236;-0.892;2023-04-16T02:55:51;14.90;;;9.50;;
62927;SDS011;51070;52.236;-0.892;2023-04-16T02:58:18;12.90;;;9.80;;
62927;SDS011;51070;52.236;-0.892;2023-04-16T03:00:44;12.40;;;10.10;;
62927;SDS011;51070;52.236;-0.892;2023-04-16T03:03:10;12.50;;;9.10;;
62927;SDS011;51070;52.236;-0.892;2023-04-16T03:05:35;14.50;;;10.90;;
62927;SDS011;51070;52.236;-0.892;2023-04-16T03:08:02;14.60;;;11.90;;
62927;SDS011;51070;52.236;-0.892;2023-04-16T03:10:28;16.50;;;11.50;;
62927;SDS011;51070;52.236;-0.892;2023-04-16T03:12:53;18.40;;;12.50;;
62927;SDS011;51070;52.236;-0.892;2023-04-16T03:15:19;20.00;;;11.60;;
62927;SDS011;51070;52.236;-0.892;2023-04-16T03:17:45;17.90;;;11.80;;
62927;SDS011;51070;52.236;-0.892;2023-04-16T03:20:11;13.40;;;10.00;;
62927;SDS011;51070;52.236;-0.892;2023-04-16T03:22:40;15.70;;;10.60;;
62927;SDS011;51070;52.236;-0.892;2023-04-16T03:25:06;10.00;;;7.70;;
62927;SDS011;51070;52.236;-0.892;2023-04-16T03:27:32;11.30;;;7.30;;
62927;SDS011;51070;52.236;-0.892;2023-04-16T03:29:58;12.70;;;6.90;;
62927;SDS011;51070;52.236;-0.892;2023-04-16T03:32:24;9.20;;;6.30;;
62927;SDS011;51070;52.236;-0.892;2023-04-16T03:34:49;9.20;;;7.30;;
62927;SDS011;51070;52.236;-0.892;2023-04-16T03:37:15;7.30;;;6.40;;
62927;SDS011;51070;52.236;-0.892;2023-04-16T03:39:40;7.90;;;6.40;;
62927;SDS011;51070;52.236;-0.892;2023-04-16T03:42:06;10.70;;;8.90;;
62927;SDS011;51070;52.236;-0.892;2023-04-16T03:44:31;8.90;;;6.50;;
62927;SDS011;51070;52.236;-0.892;2023-04-16T03:46:57;11.30;;;7.70;;
62927;SDS011;51070;52.236;-0.892;2023-04-16T03:49:23;9.10;;;7.40;;
62927;SDS011;51070;52.236;-0.892;2023-04-16T03:51:48;12.70;;;8.60;;
62927;SDS011;51070;52.236;-0.892;2023-04-16T03:54:13;9.70;;;8.40;;
62927;SDS011;51070;52.236;-0.892;2023-04-16T03:56:39;10.60;;;8.50;;
62927;SDS011;51070;52.236;-0.892;2023-04-16T03:59:05;11.90;;;7.60;;
62927;SDS011;51070;52.236;-0.892;2023-04-16T04:01:31;8.90;;;7.00;;
62927;SDS011;51070;52.236;-0.892;2023-04-16T04:03:56;9.00;;;6.60;;
62927;SDS011;51070;52.236;-0.892;2023-04-16T04:06:22;10.60;;;8.50;;
62927;SDS011;51070;52.236;-0.892;2023-04-16T04:08:48;10.00;;;7.80;;
62927;SDS011;51070;52.236;-0.892;2023-04-16T04:11:13;12.50;;;8.70;;
62927;SDS011;51070;52.236;-0.892;2023-04-16T04:13:39;14.10;;;8.20;;
62927;SDS011;51070;52.236;-0.892;2023-04-16T04:16:04;11.60;;;8.40;;
62927;SDS011;51070;52.236;-0.892;2023-04-16T04:18:30;10.60;;;8.40;;
62927;SDS011;51070;52.236;-0.892;2023-04-16T04:20:56;10.90;;;8.50;;
62927;SDS011;51070;52.236;-0.892;2023-04-16T04:23:22;13.70;;;8.80;;
62927;SDS011;51070;52.236;-0.892;2023-04-16T04:25:48;10.80;;;7.90;;
62927;SDS011;51070;52.236;-0.892;2023-04-16T04:28:13;12.00;;;8.20;;
62927;SDS011;51070;52.236;-0.892;2023-04-16T04:30:38;11.80;;;8.20;;
62927;SDS011;51070;52.236;-0.892;2023-04-16T04:33:04;11.80;;;9.00;;
62927;SDS011;51070;52.236;-0.892;2023-04-16T04:35:30;10.60;;;8.30;;
62927;SDS011;51070;52.236;-0.892;2023-04-16T04:37:55;10.10;;;7.80;;
62927;SDS011;51070;52.236;-0.892;2023-04-16T04:40:21;9.00;;;7.80;;
62927;SDS011;51070;52.236;-0.892;2023-04-16T04:42:46;11.90;;;8.60;;
62927;SDS011;51070;52.236;-0.892;2023-04-16T04:45:11;10.80;;;8.30;;
62927;SDS011;51070;52.236;-0.892;2023-04-16T04:47:37;11.20;;;9.50;;
62927;SDS011;51070;52.236;-0.892;2023-04-16T04:50:02;11.10;;;8.30;;
62927;SDS011;51070;52.236;-0.892;2023-04-16T04:52:28;11.90;;;10.10;;
62927;SDS011;51070;52.236;-0.892;2023-04-16T04:54:54;14.20;;;9.60;;
62927;SDS011;51070;52.236;-0.892;2023-04-16T04:57:20;13.30;;;10.10;;
62927;SDS011;51070;52.236;-0.892;2023-04-16T04:59:45;12.00;;;9.30;;
62927;SDS011;51070;52.236;-0.892;2023-04-16T05:02:11;13.60;;;8.70;;
62927;SDS011;51070;52.236;-0.892;2023-04-16T05:04:36;12.30;;;9.70;;
62927;SDS011;51070;52.236;-0.892;2023-04-16T05:07:02;11.90;;;9.10;;
62927;SDS011;51070;52.236;-0.892;2023-04-16T05:09:27;11.10;;;9.00;;
62927;SDS011;51070;52.236;-0.892;2023-04-16T05:11:53;11.10;;;8.80;;
62927;SDS011;51070;52.236;-0.892;2023-04-16T05:14:18;12.00;;;8.70;;
62927;SDS011;51070;52.236;-0.892;2023-04-16T05:16:43;12.50;;;9.10;;
62927;SDS011;51070;52.236;-0.892;2023-04-16T05:19:09;12.90;;;9.60;;
62927;SDS011;51070;52.236;-0.892;2023-04-16T05:21:34;14.30;;;10.40;;
62927;SDS011;51070;52.236;-0.892;2023-04-16T05:24:00;12.40;;;9.00;;
62927;SDS011;51070;52.236;-0.892;2023-04-16T05:26:25;15.20;;;10.90;;
62927;SDS011;51070;52.236;-0.892;2023-04-16T05:28:51;11.20;;;9.40;;
62927;SDS011;51070;52.236;-0.892;2023-04-16T05:31:16;12.80;;;9.00;;
62927;SDS011;51070;52.236;-0.892;2023-04-16T05:33:41;12.00;;;7.90;;
62927;SDS011;51070;52.236;-0.892;2023-04-16T05:36:07;14.50;;;9.30;;
62927;SDS011;51070;52.236;-0.892;2023-04-16T05:38:32;13.90;;;9.60;;
62927;SDS011;51070;52.236;-0.892;2023-04-16T05:40:57;14.70;;;8.60;;
62927;SDS011;51070;52.236;-0.892;2023-04-16T05:43:23;10.60;;;8.20;;
62927;SDS011;51070;52.236;-0.892;2023-04-16T05:45:49;12.50;;;8.10;;
62927;SDS011;51070;52.236;-0.892;2023-04-16T05:48:14;17.60;;;9.20;;
62927;SDS011;51070;52.236;-0.892;2023-04-16T05:50:39;13.10;;;9.60;;
62927;SDS011;51070;52.236;-0.892;2023-04-16T05:53:06;12.80;;;9.40;;
62927;SDS011;51070;52.236;-0.892;2023-04-16T05:55:32;11.30;;;9.60;;
62927;SDS011;51070;52.236;-0.892;2023-04-16T05:57:59;15.90;;;10.00;;
62927;SDS011;51070;52.236;-0.892;2023-04-16T06:00:25;13.10;;;9.70;;
62927;SDS011;51070;52.236;-0.892;2023-04-16T06:02:51;11.90;;;10.10;;
62927;SDS011;51070;52.236;-0.892;2023-04-16T06:05:16;13.20;;;9.30;;
62927;SDS011;51070;52.236;-0.892;2023-04-16T06:07:42;13.40;;;10.30;;
62927;SDS011;51070;52.236;-0.892;2023-04-16T06:10:07;11.20;;;8.90;;
62927;SDS011;51070;52.236;-0.892;2023-04-16T06:12:33;14.10;;;9.80;;
62927;SDS011;51070;52.236;-0.892;2023-04-16T06:14:59;12.70;;;9.10;;
62927;SDS011;51070;52.236;-0.892;2023-04-16T06:17:25;10.80;;;9.00;;
62927;SDS011;51070;52.236;-0.892;2023-04-16T06:19:51;10.80;;;9.40;;
62927;SDS011;51070;52.236;-0.892;2023-04-16T06:22:16;10.70;;;8.70;;
62927;SDS011;51070;52.236;-0.892;2023-04-16T06:24:42;12.70;;;8.80;;
62927;SDS011;51070;52.236;-0.892;2023-04-16T06:27:07;11.30;;;8.30;;
62927;SDS011;51070;52.236;-0.892;2023-04-16T06:29:33;11.60;;;9.50;;
62927;SDS011;51070;52.236;-0.892;2023-04-16T06:31:58;10.60;;;7.50;;
62927;SDS011;51070;52.236;-0.892;2023-04-16T06:34:25;14.90;;;9.80;;
62927;SDS011;51070;52.236;-0.892;2023-04-16T06:36:52;11.90;;;9.80;;
62927;SDS011;51070;52.236;-0.892;2023-04-16T06:39:17;13.10;;;9.60;;
62927;SDS011;51070;52.236;-0.892;2023-04-16T06:41:45;12.10;;;9.70;;
62927;SDS011;51070;52.236;-0.892;2023-04-16T06:44:14;14.40;;;9.20;;
62927;SDS011;51070;52.236;-0.892;2023-04-16T06:46:40;10.90;;;8.50;;
62927;SDS011;51070;52.236;-0.892;2023-04-16T06:49:06;13.00;;;9.20;;
62927;SDS011;51070;52.236;-0.892;2023-04-16T06:51:31;12.10;;;9.70;;
62927;SDS011;51070;52.236;-0.892;2023-04-16T06:53:57;10.70;;;8.00;;
62927;SDS011;51070;52.236;-0.892;2023-04-16T06:56:23;10.40;;;8.20;;
62927;SDS011;51070;52.236;-0.892;2023-04-16T06:58:48;10.80;;;8.30;;
62927;SDS011;51070;52.236;-0.892;2023-04-16T07:01:15;11.30;;;9.40;;
62927;SDS011;51070;52.236;-0.892;2023-04-16T07:03:41;12.00;;;10.20;;
62927;SDS011;51070;52.236;-0.892;2023-04-16T07:06:06;14.00;;;10.40;;
62927;SDS011;51070;52.236;-0.892;2023-04-16T07:08:32;10.70;;;7.90;;
62927;SDS011;51070;52.236;-0.892;2023-04-16T07:10:57;11.50;;;8.50;;
62927;SDS011;51070;52.236;-0.892;2023-04-16T07:13:23;11.00;;;8.20;;
62927;SDS011;51070;52.236;-0.892;2023-04-16T07:15:49;13.90;;;8.30;;
62927;SDS011;51070;52.236;-0.892;2023-04-16T07:18:14;9.90;;;8.50;;
62927;SDS011;51070;52.236;-0.892;2023-04-16T07:20:40;9.90;;;8.70;;
62927;SDS011;51070;52.236;-0.892;2023-04-16T07:23:06;12.30;;;8.70;;
62927;SDS011;51070;52.236;-0.892;2023-04-16T07:25:31;11.40;;;8.60;;
62927;SDS011;51070;52.236;-0.892;2023-04-16T07:27:56;10.90;;;8.00;;
62927;SDS011;51070;52.236;-0.892;2023-04-16T07:30:22;10.40;;;7.80;;
62927;SDS011;51070;52.236;-0.892;2023-04-16T07:32:48;9.30;;;7.00;;
62927;SDS011;51070;52.236;-0.892;2023-04-16T07:35:15;11.70;;;7.60;;
62927;SDS011;51070;52.236;-0.892;2023-04-16T07:37:40;10.20;;;6.30;;
62927;SDS011;51070;52.236;-0.892;2023-04-16T07:40:06;11.10;;;7.30;;
62927;SDS011;51070;52.236;-0.892;2023-04-16T07:42:33;8.60;;;6.80;;
62927;SDS011;51070;52.236;-0.892;2023-04-16T07:44:58;9.20;;;7.00;;
62927;SDS011;51070;52.236;-0.892;2023-04-16T07:47:24;10.20;;;6.90;;
62927;SDS011;51070;52.236;-0.892;2023-04-16T07:49:50;6.90;;;6.00;;
62927;SDS011;51070;52.236;-0.892;2023-04-16T07:52:18;9.00;;;6.40;;
62927;SDS011;51070;52.236;-0.892;2023-04-16T07:54:44;7.40;;;5.40;;
62927;SDS011;51070;52.236;-0.892;2023-04-16T07:57:10;10.90;;;5.60;;
62927;SDS011;51070;52.236;-0.892;2023-04-16T07:59:36;8.70;;;5.70;;
62927;SDS011;51070;52.236;-0.892;2023-04-16T08:02:01;8.20;;;6.10;;
62927;SDS011;51070;52.236;-0.892;2023-04-16T08:04:28;8.80;;;6.50;;
62927;SDS011;51070;52.236;-0.892;2023-04-16T08:06:54;6.00;;;5.40;;
62927;SDS011;51070;52.236;-0.892;2023-04-16T08:09:20;6.30;;;4.90;;
62927;SDS011;51070;52.236;-0.892;2023-04-16T08:11:48;7.90;;;5.20;;
62927;SDS011;51070;52.236;-0.892;2023-04-16T08:14:14;5.80;;;4.90;;
62927;SDS011;51070;52.236;-0.892;2023-04-16T08:16:40;6.00;;;5.00;;
62927;SDS011;51070;52.236;-0.892;2023-04-16T08:19:06;6.50;;;4.70;;
62927;SDS011;51070;52.236;-0.892;2023-04-16T08:21:32;7.70;;;4.40;;
62927;SDS011;51070;52.236;-0.892;2023-04-16T08:23:57;6.00;;;4.60;;
62927;SDS011;51070;52.236;-0.892;2023-04-16T08:26:23;6.10;;;5.30;;
62927;SDS011;51070;52.236;-0.892;2023-04-16T08:28:48;7.80;;;4.70;;
62927;SDS011;51070;52.236;-0.892;2023-04-16T08:31:14;6.80;;;5.60;;
62927;SDS011;51070;52.236;-0.892;2023-04-16T08:33:41;5.10;;;4.20;;
62927;SDS011;51070;52.236;-0.892;2023-04-16T08:36:06;5.80;;;3.80;;
62927;SDS011;51070;52.236;-0.892;2023-04-16T08:38:32;4.70;;;3.80;;
62927;SDS011;51070;52.236;-0.892;2023-04-16T08:40:59;3.90;;;3.40;;
62927;SDS011;51070;52.236;-0.892;2023-04-16T08:43:28;5.00;;;3.40;;
62927;SDS011;51070;52.236;-0.892;2023-04-16T08:45:58;4.30;;;3.30;;
62927;SDS011;51070;52.236;-0.892;2023-04-16T08:48:25;5.00;;;2.90;;
62927;SDS011;51070;52.236;-0.892;2023-04-16T08:50:56;4.60;;;2.60;;
62927;SDS011;51070;52.236;-0.892;2023-04-16T08:53:35;4.00;;;2.50;;
62927;SDS011;51070;52.236;-0.892;2023-04-16T08:56:16;5.70;;;2.90;;
62927;SDS011;51070;52.236;-0.892;2023-04-16T08:58:47;5.40;;;3.30;;
62927;SDS011;51070;52.236;-0.892;2023-04-16T09:01:15;4.10;;;2.50;;
62927;SDS011;51070;52.236;-0.892;2023-04-16T09:03:43;2.70;;;2.10;;
62927;SDS011;51070;52.236;-0.892;2023-04-16T09:06:11;2.50;;;2.00;;
62927;SDS011;51070;52.236;-0.892;2023-04-16T09:08:37;3.00;;;1.80;;
62927;SDS011;51070;52.236;-0.892;2023-04-16T09:11:03;4.90;;;1.80;;
62927;SDS011;51070;52.236;-0.892;2023-04-16T09:13:32;3.80;;;2.00;;
62927;SDS011;51070;52.236;-0.892;2023-04-16T09:18:23;1.80;;;1.00;;
62927;SDS011;51070;52.236;-0.892;2023-04-16T09:20:50;2.40;;;0.90;;
62927;SDS011;51070;52.236;-0.892;2023-04-16T09:23:16;2.30;;;1.00;;
62927;SDS011;51070;52.236;-0.892;2023-04-16T09:25:42;3.20;;;0.70;;
62927;SDS011;51070;52.236;-0.892;2023-04-16T09:28:08;2.80;;;0.90;;
62927;SDS011;51070;52.236;-0.892;2023-04-16T09:30:35;1.70;;;0.80;;
62927;SDS011;51070;52.236;-0.892;2023-04-16T09:33:15;0.70;;;0.60;;
62927;SDS011;51070;52.236;-0.892;2023-04-16T09:35:49;4.10;;;0.90;;
62927;SDS011;51070;52.236;-0.892;2023-04-16T09:38:16;2.50;;;0.70;;
62927;SDS011;51070;52.236;-0.892;2023-04-16T09:40:42;2.60;;;0.80;;
62927;SDS011;51070;52.236;-0.892;2023-04-16T09:43:17;1.70;;;0.70;;
62927;SDS011;51070;52.236;-0.892;2023-04-16T09:45:50;2.00;;;1.10;;
62927;SDS011;51070;52.236;-0.892;2023-04-16T09:48:32;4.20;;;1.20;;
62927;SDS011;51070;52.236;-0.892;2023-04-16T09:50:59;2.80;;;1.10;;
62927;SDS011;51070;52.236;-0.892;2023-04-16T09:53:25;1.80;;;0.80;;
62927;SDS011;51070;52.236;-0.892;2023-04-16T09:55:55;2.50;;;1.00;;
62927;SDS011;51070;52.236;-0.892;2023-04-16T09:58:25;3.00;;;0.90;;
62927;SDS011;51070;52.236;-0.892;2023-04-16T10:00:54;1.70;;;0.90;;
62927;SDS011;51070;52.236;-0.892;2023-04-16T10:03:28;1.30;;;0.80;;
62927;SDS011;51070;52.236;-0.892;2023-04-16T10:05:58;3.70;;;1.00;;
62927;SDS011;51070;52.236;-0.892;2023-04-16T10:08:25;2.50;;;0.80;;
62927;SDS011;51070;52.236;-0.892;2023-04-16T10:10:50;1.50;;;0.80;;
62927;SDS011;51070;52.236;-0.892;2023-04-16T10:13:18;6.10;;;0.80;;
62927;SDS011;51070;52.236;-0.892;2023-04-16T10:15:43;1.50;;;0.90;;
62927;SDS011;51070;52.236;-0.892;2023-04-16T10:18:09;4.90;;;0.90;;
62927;SDS011;51070;52.236;-0.892;2023-04-16T10:20:35;2.70;;;1.20;;
62927;SDS011;51070;52.236;-0.892;2023-04-16T10:23:01;1.70;;;1.00;;
62927;SDS011;51070;52.236;-0.892;2023-04-16T10:25:27;3.70;;;1.20;;
62927;SDS011;51070;52.236;-0.892;2023-04-16T10:27:54;2.00;;;1.00;;
62927;SDS011;51070;52.236;-0.892;2023-04-16T10:30:20;3.00;;;1.30;;
62927;SDS011;51070;52.236;-0.892;2023-04-16T10:32:46;2.90;;;1.10;;
62927;SDS011;51070;52.236;-0.892;2023-04-16T10:35:19;3.40;;;1.00;;
62927;SDS011;51070;52.236;-0.892;2023-04-16T10:37:47;2.60;;;1.10;;
62927;SDS011;51070;52.236;-0.892;2023-04-16T10:40:20;3.70;;;0.80;;
62927;SDS011;51070;52.236;-0.892;2023-04-16T10:42:56;1.70;;;0.80;;
62927;SDS011;51070;52.236;-0.892;2023-04-16T10:45:28;2.90;;;1.00;;
62927;SDS011;51070;52.236;-0.892;2023-04-16T10:47:56;1.90;;;0.80;;
62927;SDS011;51070;52.236;-0.892;2023-04-16T10:50:22;1.20;;;0.50;;
62927;SDS011;51070;52.236;-0.892;2023-04-16T10:52:48;2.60;;;1.10;;
62927;SDS011;51070;52.236;-0.892;2023-04-16T10:55:16;5.30;;;1.40;;
62927;SDS011;51070;52.236;-0.892;2023-04-16T10:57:41;2.90;;;0.90;;
62927;SDS011;51070;52.236;-0.892;2023-04-16T11:00:22;1.70;;;1.00;;
62927;SDS011;51070;52.236;-0.892;2023-04-16T11:02:51;1.30;;;0.70;;
62927;SDS011;51070;52.236;-0.892;2023-04-16T11:05:20;3.90;;;1.10;;
62927;SDS011;51070;52.236;-0.892;2023-04-16T11:07:47;2.50;;;0.90;;
62927;SDS011;51070;52.236;-0.892;2023-04-16T11:10:13;1.80;;;1.00;;
62927;SDS011;51070;52.236;-0.892;2023-04-16T11:12:39;3.40;;;1.10;;
62927;SDS011;51070;52.236;-0.892;2023-04-16T11:15:12;2.20;;;0.70;;
62927;SDS011;51070;52.236;-0.892;2023-04-16T11:17:44;1.50;;;0.80;;
62927;SDS011;51070;52.236;-0.892;2023-04-16T11:20:14;1.30;;;0.60;;
62927;SDS011;51070;52.236;-0.892;2023-04-16T11:22:51;2.30;;;0.90;;
62927;SDS011;51070;52.236;-0.892;2023-04-16T11:25:19;2.50;;;1.20;;
62927;SDS011;51070;52.236;-0.892;2023-04-16T11:27:46;1.80;;;0.90;;
62927;SDS011;51070;52.236;-0.892;2023-04-16T11:30:12;2.90;;;1.00;;
62927;SDS011;51070;52.236;-0.892;2023-04-16T11:32:38;3.90;;;1.50;;
62927;SDS011;51070;52.236;-0.892;2023-04-16T11:35:15;3.50;;;0.90;;
62927;SDS011;51070;52.236;-0.892;2023-04-16T11:40:08;2.80;;;1.40;;
62927;SDS011;51070;52.236;-0.892;2023-04-16T11:42:34;2.70;;;0.90;;
62927;SDS011;51070;52.236;-0.892;2023-04-16T11:45:01;3.90;;;1.00;;
62927;SDS011;51070;52.236;-0.892;2023-04-16T11:47:28;1.90;;;0.90;;
62927;SDS011;51070;52.236;-0.892;2023-04-16T11:49:54;1.90;;;1.00;;
62927;SDS011;51070;52.236;-0.892;2023-04-16T11:52:30;2.30;;;0.90;;
62927;SDS011;51070;52.236;-0.892;2023-04-16T11:54:57;2.30;;;0.90;;
62927;SDS011;51070;52.236;-0.892;2023-04-16T11:57:27;1.10;;;0.80;;
62927;SDS011;51070;52.236;-0.892;2023-04-16T11:59:54;4.60;;;1.20;;
62927;SDS011;51070;52.236;-0.892;2023-04-16T12:02:34;2.50;;;0.90;;
62927;SDS011;51070;52.236;-0.892;2023-04-16T12:05:24;2.50;;;0.90;;
62927;SDS011;51070;52.236;-0.892;2023-04-16T12:07:51;1.90;;;0.90;;
62927;SDS011;51070;52.236;-0.892;2023-04-16T12:10:17;4.90;;;1.00;;
62927;SDS011;51070;52.236;-0.892;2023-04-16T12:12:43;2.40;;;1.00;;
62927;SDS011;51070;52.236;-0.892;2023-04-16T12:15:08;3.60;;;1.30;;
62927;SDS011;51070;52.236;-0.892;2023-04-16T12:17:34;4.10;;;1.00;;
62927;SDS011;51070;52.236;-0.892;2023-04-16T12:20:09;3.50;;;0.90;;
62927;SDS011;51070;52.236;-0.892;2023-04-16T12:22:37;1.10;;;0.70;;
62927;SDS011;51070;52.236;-0.892;2023-04-16T12:27:50;3.60;;;0.90;;
62927;SDS011;51070;52.236;-0.892;2023-04-16T12:30:20;1.90;;;0.90;;
62927;SDS011;51070;52.236;-0.892;2023-04-16T12:32:47;1.40;;;0.90;;
62927;SDS011;51070;52.236;-0.892;2023-04-16T12:35:47;2.60;;;1.10;;
62927;SDS011;51070;52.236;-0.892;2023-04-16T12:38:08;3.90;;;0.80;;
62927;SDS011;51070;52.236;-0.892;2023-04-16T12:40:34;1.10;;;0.70;;
62927;SDS011;51070;52.236;-0.892;2023-04-16T12:43:00;4.30;;;0.90;;
62927;SDS011;51070;52.236;-0.892;2023-04-16T12:45:26;2.80;;;0.80;;
62927;SDS011;51070;52.236;-0.892;2023-04-16T12:47:52;5.50;;;1.00;;
62927;SDS011;51070;52.236;-0.892;2023-04-16T12:50:17;1.80;;;0.70;;
62927;SDS011;51070;52.236;-0.892;2023-04-16T12:52:43;3.20;;;0.90;;
62927;SDS011;51070;52.236;-0.892;2023-04-16T12:55:11;3.10;;;0.70;;
62927;SDS011;51070;52.236;-0.892;2023-04-16T12:57:38;1.30;;;0.50;;
62927;SDS011;51070;52.236;-0.892;2023-04-16T13:00:04;2.20;;;0.70;;
62927;SDS011;51070;52.236;-0.892;2023-04-16T13:02:30;5.50;;;1.00;;
62927;SDS011;51070;52.236;-0.892;2023-04-16T13:04:56;1.10;;;0.60;;
62927;SDS011;51070;52.236;-0.892;2023-04-16T13:07:22;3.40;;;1.00;;
62927;SDS011;51070;52.236;-0.892;2023-04-16T13:09:48;2.00;;;0.80;;
62927;SDS011;51070;52.236;-0.892;2023-04-16T13:12:14;4.20;;;1.00;;
62927;SDS011;51070;52.236;-0.892;2023-04-16T13:14:40;1.70;;;0.70;;
62927;SDS011;51070;52.236;-0.892;2023-04-16T13:17:05;2.00;;;0.60;;
62927;SDS011;51070;52.236;-0.892;2023-04-16T13:19:31;2.10;;;0.70;;
62927;SDS011;51070;52.236;-0.892;2023-04-16T13:21:56;2.10;;;0.90;;
62927;SDS011;51070;52.236;-0.892;2023-04-16T13:24:23;2.60;;;0.90;;
62927;SDS011;51070;52.236;-0.892;2023-04-16T13:26:49;2.60;;;1.00;;
62927;SDS011;51070;52.236;-0.892;2023-04-16T13:29:16;1.90;;;0.90;;
62927;SDS011;51070;52.236;-0.892;2023-04-16T13:31:42;5.60;;;1.00;;
62927;SDS011;51070;52.236;-0.892;2023-04-16T13:34:08;2.60;;;0.90;;
62927;SDS011;51070;52.236;-0.892;2023-04-16T13:36:33;2.50;;;0.90;;
62927;SDS011;51070;52.236;-0.892;2023-04-16T13:38:59;2.60;;;0.80;;
62927;SDS011;51070;52.236;-0.892;2023-04-16T13:41:24;1.60;;;0.90;;
62927;SDS011;51070;52.236;-0.892;2023-04-16T13:43:50;3.30;;;1.20;;
62927;SDS011;51070;52.236;-0.892;2023-04-16T13:46:15;2.30;;;1.20;;
62927;SDS011;51070;52.236;-0.892;2023-04-16T13:48:41;1.80;;;1.10;;
62927;SDS011;51070;52.236;-0.892;2023-04-16T13:51:06;3.00;;;0.90;;
62927;SDS011;51070;52.236;-0.892;2023-04-16T13:53:32;2.50;;;0.90;;
62927;SDS011;51070;52.236;-0.892;2023-04-16T13:55:58;3.40;;;1.20;;
62927;SDS011;51070;52.236;-0.892;2023-04-16T13:58:23;2.20;;;1.00;;
62927;SDS011;51070;52.236;-0.892;2023-04-16T14:00:50;2.10;;;1.00;;
62927;SDS011;51070;52.236;-0.892;2023-04-16T14:03:15;4.90;;;1.40;;
62927;SDS011;51070;52.236;-0.892;2023-04-16T14:05:41;5.70;;;1.20;;
62927;SDS011;51070;52.236;-0.892;2023-04-16T14:08:07;3.10;;;1.10;;
62927;SDS011;51070;52.236;-0.892;2023-04-16T14:10:32;3.80;;;1.20;;
62927;SDS011;51070;52.236;-0.892;2023-04-16T14:12:57;2.70;;;1.10;;
62927;SDS011;51070;52.236;-0.892;2023-04-16T14:15:23;2.80;;;0.90;;
62927;SDS011;51070;52.236;-0.892;2023-04-16T14:17:51;3.00;;;1.10;;
62927;SDS011;51070;52.236;-0.892;2023-04-16T14:20:16;4.40;;;1.00;;
62927;SDS011;51070;52.236;-0.892;2023-04-16T14:22:42;2.00;;;0.80;;
62927;SDS011;51070;52.236;-0.892;2023-04-16T14:25:08;1.40;;;1.00;;
62927;SDS011;51070;52.236;-0.892;2023-04-16T14:27:33;3.50;;;1.30;;
62927;SDS011;51070;52.236;-0.892;2023-04-16T14:29:59;5.00;;;1.10;;